map of BEJ home
Great Circle Mapper logo
BEJ - Airport
Location
City:  Tanjung Redep, Berau, Kalimantan (Borneo), Indonesia
Name:Kalimaru
ICAO / IATA:WALK / BEJ

Details
Type:Airport (Aerodrome, Airfield)
Latitude:209'20"N (2.155497)
Longitude:11725'56"E (117.432256)
Datum:WGS 1984
Elevation:59 ft (18 m)
Runways:1
Longest:4625 × 75 ft (1410 × 23 m), paved

Time
Time Zone:UTC+8
Local Time:

Weather
TAF:WALK 211700Z 2118/2206 35002KT 6000 SCT015
BECMG 2122/2201 30002KT 8000 SCT018

Related Locations
Nearby:
Farthest:BAZ: 12347 mi / 19870 km
Barcelos, AM, BR

Find:

   beyond  
but within

Other Information
Maps:
NOTAMs:
Links:
Sources:

  
flag of Indonesia   

Sectional Chart

Flight Planning
at skyvector.com

Satellite Image

Google Maps Satellite View

 

Copyright © 2004-2014 Karl L. Swartz. All rights reserved.
The Great Circle Mapper name and logo are trademarks of the Great Circle Mapper.
All other trademarks mentioned herein belong to their respective owners.
Please see credits for attibutions and further copyright information.

  Follow gcmap on Facebook Follow gcmap on Twitter

hCard Microformat

Geo Microformat